createdAt,value
2023-03-13T00:00:46.337Z,100117.16
2023-03-13T00:03:16.053Z,100122.38
2023-03-13T00:05:46.109Z,100111.09
2023-03-13T00:08:16.170Z,100104.13
2023-03-13T00:10:53.868Z,100105.84
2023-03-13T00:13:37.790Z,100104.19
2023-03-13T00:16:10.998Z,100081.50
2023-03-13T00:18:41.476Z,100084.22
2023-03-13T00:21:12.004Z,100079.88
2023-03-13T00:23:41.937Z,100077.28
2023-03-13T00:26:17.098Z,100059.88
2023-03-13T00:32:11.194Z,100046.88
2023-03-13T00:34:40.436Z,100046.03
2023-03-13T00:37:12.965Z,100039.94
2023-03-13T00:39:42.899Z,100029.50
2023-03-13T00:42:12.102Z,100021.66
2023-03-13T00:44:48.670Z,100015.56
2023-03-13T00:47:41.860Z,100001.63
2023-03-13T00:50:12.628Z,100004.25
2023-03-13T00:52:42.132Z,99988.56
2023-03-13T00:55:12.462Z,99977.22
2023-03-13T00:57:41.735Z,99980.72
2023-03-13T01:00:16.316Z,99980.72
2023-03-13T01:02:52.209Z,99967.59
2023-03-13T01:05:21.583Z,99951.03
2023-03-13T01:07:51.172Z,99945.81
2023-03-13T01:10:21.699Z,99951.03
2023-03-13T01:12:51.077Z,99927.50
2023-03-13T01:15:37.999Z,99919.66
2023-03-13T01:18:21.637Z,99924.00
2023-03-13T01:20:50.656Z,99924.88
2023-03-13T01:23:20.645Z,99924.00
2023-03-13T01:25:49.448Z,99906.53
2023-03-13T01:28:18.570Z,99902.16
2023-03-13T01:30:47.580Z,99895.22
2023-03-13T01:33:18.575Z,99884.75
2023-03-13T01:35:47.519Z,99885.63
2023-03-13T01:38:16.860Z,99881.28
2023-03-13T01:40:48.665Z,99881.28
2023-03-13T01:43:27.019Z,99872.63
2023-03-13T01:46:36.888Z,99862.19
2023-03-13T01:49:25.964Z,99851.75
2023-03-13T01:52:00.646Z,99848.28
2023-03-13T01:54:36.524Z,99838.66
2023-03-13T01:57:22.648Z,99830.81
2023-03-13T02:02:50.633Z,99809.88
2023-03-13T02:05:33.187Z,99802.00
2023-03-13T02:08:08.733Z,99791.50
2023-03-13T02:10:45.427Z,99781.84
2023-03-13T02:13:18.008Z,99767.91
2023-03-13T02:15:48.739Z,99758.28
2023-03-13T02:18:19.024Z,99749.53
2023-03-13T02:21:10.982Z,99737.31
2023-03-13T02:23:50.974Z,99731.22
2023-03-13T02:26:22.138Z,99712.09
2023-03-13T02:28:51.710Z,99694.69
2023-03-13T02:31:41.345Z,99686.84
2023-03-13T02:34:11.401Z,99684.22
2023-03-13T02:36:41.215Z,99682.44
2023-03-13T02:39:11.697Z,99670.22
2023-03-13T02:41:44.292Z,99665.91
2023-03-13T02:44:14.033Z,99653.69
2023-03-13T02:46:50.641Z,99645.00
2023-03-13T02:49:33.567Z,99642.38
2023-03-13T02:52:33.971Z,99651.06
2023-03-13T02:55:10.003Z,99637.16
2023-03-13T02:57:40.644Z,99617.06
2023-03-13T03:00:13.850Z,99614.44
2023-03-13T03:02:43.973Z,99608.34
2023-03-13T03:05:34.707Z,99600.47
2023-03-13T03:08:05.348Z,99589.97
2023-03-13T03:10:37.476Z,99574.28
2023-03-13T03:13:08.160Z,99582.97
2023-03-13T03:15:37.605Z,99567.22
2023-03-13T03:18:06.951Z,99562.84
2023-03-13T03:20:38.872Z,99559.34
2023-03-13T03:23:08.677Z,99541.91
2023-03-13T03:25:38.206Z,99540.97
2023-03-13T03:28:09.962Z,99533.97
2023-03-13T03:30:39.959Z,99534.81
2023-03-13T03:33:19.297Z,99527.81
2023-03-13T03:35:50.314Z,99523.44
2023-03-13T03:38:19.377Z,99508.59
2023-03-13T03:40:49.122Z,99497.22
2023-03-13T03:43:20.099Z,99507.66
2023-03-13T03:45:49.861Z,99521.59
2023-03-13T03:48:19.025Z,99500.59
2023-03-13T03:50:52.675Z,99498.81
2023-03-13T03:53:33.329Z,99499.66
2023-03-13T03:56:05.355Z,99500.50
2023-03-13T03:58:37.108Z,99489.97
2023-03-13T04:01:07.053Z,99478.56
2023-03-13T04:03:36.975Z,99478.53
2023-03-13T04:06:17.609Z,99461.94
2023-03-13T04:08:46.883Z,99472.34
2023-03-13T04:11:18.019Z,99462.69
2023-03-13T04:13:49.356Z,99460.00
2023-03-13T04:16:18.774Z,99465.16
2023-03-13T04:18:49.358Z,99468.56
2023-03-13T04:21:18.652Z,99451.06
2023-03-13T04:23:47.692Z,99437.00
2023-03-13T04:26:17.465Z,99446.53
2023-03-13T04:28:49.486Z,99447.31
2023-03-13T04:31:18.543Z,99441.13
2023-03-13T04:33:48.182Z,99428.81
2023-03-13T04:36:18.413Z,99429.59
2023-03-13T04:38:47.799Z,99431.28
2023-03-13T04:41:16.900Z,99416.38
2023-03-13T04:43:47.478Z,99424.13
2023-03-13T04:46:16.490Z,99404.78
2023-03-13T04:48:47.046Z,99405.59
2023-03-13T04:51:16.839Z,99408.94
2023-03-13T04:53:45.849Z,99411.44
2023-03-13T04:56:41.773Z,99399.09
2023-03-13T04:59:16.871Z,99385.91
2023-03-13T05:01:46.578Z,99397.16
2023-03-13T05:04:15.743Z,99383.91
2023-03-13T05:06:45.343Z,99377.66
2023-03-13T05:09:15.184Z,99360.09
2023-03-13T05:11:50.945Z,99370.50
2023-03-13T05:14:22.202Z,99357.28
2023-03-13T05:16:51.055Z,99357.19
2023-03-13T05:19:20.581Z,99358.84
2023-03-13T05:21:49.972Z,99364.81
2023-03-13T05:24:19.627Z,99342.00
2023-03-13T05:26:49.601Z,99340.13
2023-03-13T05:29:18.930Z,99334.75
2023-03-13T05:31:50.263Z,99344.25
2023-03-13T05:34:20.663Z,99350.25
2023-03-13T05:36:50.188Z,99342.28
2023-03-13T05:39:21.222Z,99332.56
2023-03-13T05:41:50.991Z,99333.34
2023-03-13T05:44:20.249Z,99325.41
2023-03-13T05:46:50.719Z,99328.78
2023-03-13T05:49:20.290Z,99318.19
2023-03-13T05:51:49.867Z,99307.63
2023-03-13T05:54:19.449Z,99321.50
2023-03-13T05:56:50.547Z,99324.91
2023-03-13T05:59:20.222Z,99313.47
2023-03-13T06:01:50.650Z,99310.81
2023-03-13T06:04:20.104Z,99310.69
2023-03-13T06:06:49.167Z,99325.50
2023-03-13T06:09:31.540Z,99315.81
2023-03-13T06:12:21.603Z,99302.66
2023-03-13T06:14:51.285Z,99335.84
2023-03-13T06:17:22.884Z,99285.03
2023-03-13T06:19:52.519Z,99298.13
2023-03-13T06:22:23.157Z,99286.66
2023-03-13T06:25:09.677Z,99298.94
2023-03-13T06:28:02.328Z,99292.81
2023-03-13T06:30:37.457Z,99289.25
2023-03-13T06:33:09.407Z,99303.22
2023-03-13T06:36:04.824Z,99303.22
2023-03-13T06:38:36.069Z,99272.53
2023-03-13T06:41:05.679Z,99296.16
2023-03-13T06:43:41.339Z,99303.97
2023-03-13T06:46:20.152Z,99289.94
2023-03-13T06:48:55.585Z,99291.66
2023-03-13T06:51:39.078Z,99294.22
2023-03-13T06:54:08.596Z,99284.53
2023-03-13T06:56:49.599Z,99220.59
2023-03-13T06:59:20.875Z,99295.88
2023-03-13T07:01:52.415Z,99283.59
2023-03-13T07:04:22.793Z,99280.09
2023-03-13T07:07:14.930Z,99273.09
2023-03-13T07:09:50.880Z,99274.84
2023-03-13T07:12:20.432Z,99277.44
2023-03-13T07:14:52.268Z,99301.97
2023-03-13T07:17:21.554Z,99266.06
2023-03-13T07:19:52.415Z,99280.97
2023-03-13T07:22:22.506Z,99265.19
2023-03-13T07:24:52.122Z,99274.84
2023-03-13T07:27:23.661Z,99265.19
2023-03-13T07:29:52.906Z,99278.31
2023-03-13T07:32:22.207Z,99261.69
2023-03-13T07:34:53.086Z,99262.56
2023-03-13T07:37:22.206Z,99266.06
2023-03-13T07:39:51.430Z,99278.31
2023-03-13T07:42:22.178Z,99258.13
2023-03-13T07:44:51.969Z,99278.19
2023-03-13T07:47:21.150Z,99258.91
2023-03-13T07:49:51.998Z,99279.78
2023-03-13T07:52:21.611Z,99267.50
2023-03-13T07:54:52.305Z,99270.03
2023-03-13T07:57:26.167Z,99265.69
2023-03-13T08:00:11.270Z,99259.59
2023-03-13T08:02:40.452Z,99278.72
2023-03-13T08:05:16.480Z,99273.47
2023-03-13T08:07:50.069Z,99276.94
2023-03-13T08:10:21.530Z,99269.13
2023-03-13T08:12:52.607Z,99284.84
2023-03-13T08:15:27.324Z,99285.72
2023-03-13T08:18:17.237Z,99270.84
2023-03-13T08:20:51.312Z,99297.97
2023-03-13T08:23:21.190Z,99280.53
2023-03-13T08:25:50.843Z,99289.34
2023-03-13T08:28:20.272Z,99280.53
2023-03-13T08:30:51.291Z,99284.84
2023-03-13T08:33:20.962Z,99288.34
2023-03-13T08:35:51.903Z,99284.91
2023-03-13T08:38:21.453Z,99274.31
2023-03-13T08:40:51.863Z,99267.22
2023-03-13T08:43:22.945Z,99282.81
2023-03-13T08:46:03.089Z,99273.19
2023-03-13T08:48:35.338Z,99267.94
2023-03-13T08:51:09.501Z,99279.91
2023-03-13T08:53:41.127Z,99277.97
2023-03-13T08:56:13.451Z,99264.72
2023-03-13T08:58:44.154Z,99255.94
2023-03-13T09:01:15.343Z,99264.66
2023-03-13T09:03:45.887Z,99261.06
2023-03-13T09:06:17.220Z,99266.19
2023-03-13T09:08:46.951Z,99263.63
2023-03-13T09:11:18.818Z,99263.47
2023-03-13T09:13:51.231Z,99277.34
2023-03-13T09:16:22.261Z,99261.28
2023-03-13T09:18:57.790Z,99265.25
2023-03-13T09:21:36.086Z,99270.31
2023-03-13T09:24:06.362Z,99256.22
2023-03-13T09:26:36.097Z,99280.84
2023-03-13T09:29:13.448Z,99255.50
2023-03-13T09:31:43.359Z,99255.53
2023-03-13T09:34:12.432Z,99253.75
2023-03-13T09:36:52.737Z,99243.09
2023-03-13T09:39:22.412Z,99265.69
2023-03-13T09:42:04.524Z,99277.06
2023-03-13T09:44:47.475Z,99264.28
2023-03-13T09:47:28.894Z,99277.75
2023-03-13T09:50:05.515Z,99265.84
2023-03-13T09:52:42.533Z,99266.69
2023-03-13T09:55:29.978Z,99263.81
2023-03-13T09:58:08.032Z,99269.78
2023-03-13T10:00:41.067Z,99283.97
2023-03-13T10:03:19.940Z,99263.81
2023-03-13T10:05:51.809Z,99252.22
2023-03-13T10:08:27.174Z,99248.63
2023-03-13T10:11:04.445Z,99244.91
2023-03-13T10:13:41.664Z,99241.41
2023-03-13T10:16:14.293Z,99226.34
2023-03-13T10:18:50.282Z,99218.44
2023-03-13T10:21:23.457Z,99222.66
2023-03-13T10:24:11.043Z,99221.72
2023-03-13T10:26:52.531Z,99215.09
2023-03-13T10:29:34.058Z,99227.81
2023-03-13T10:32:08.665Z,99205.63
2023-03-13T10:34:55.833Z,99215.19
2023-03-13T10:37:33.169Z,99216.66
2023-03-13T10:40:34.829Z,99228.66
2023-03-13T10:43:07.784Z,99224.88
2023-03-13T10:45:39.577Z,99217.41
2023-03-13T10:48:20.631Z,99222.34
2023-03-13T10:50:52.891Z,99230.81
2023-03-13T10:53:39.611Z,99205.91
2023-03-13T10:56:17.791Z,99204.75
2023-03-13T10:58:50.780Z,99210.66
2023-03-13T11:01:25.668Z,99210.22
2023-03-13T11:03:58.257Z,99203.00
2023-03-13T11:06:32.711Z,99222.34
2023-03-13T11:09:20.624Z,99202.81
2023-03-13T11:11:57.018Z,99210.66
2023-03-13T11:14:30.541Z,99199.38
2023-03-13T11:17:07.190Z,99166.13
2023-03-13T11:20:00.804Z,99197.06
2023-03-13T11:22:50.828Z,99196.09
2023-03-13T11:25:34.149Z,99204.38
2023-03-13T11:28:44.761Z,99200.41
2023-03-13T11:31:21.675Z,99182.28
2023-03-13T11:34:28.467Z,99181.19
2023-03-13T11:40:07.437Z,99175.78
2023-03-13T11:43:24.588Z,99170.41
2023-03-13T11:46:21.512Z,99176.69
2023-03-13T11:49:17.308Z,99179.28
2023-03-13T11:52:13.160Z,99170.84
2023-03-13T11:55:14.017Z,99161.84
2023-03-13T11:57:56.776Z,99175.06
2023-03-13T12:00:37.118Z,99183.81
2023-03-13T12:03:19.281Z,99152.06
2023-03-13T12:08:21.437Z,99147.03
2023-03-13T12:11:00.835Z,99135.31
2023-03-13T12:13:35.630Z,99152.03
2023-03-13T12:16:13.107Z,99153.72
2023-03-13T12:18:46.539Z,99151.06
2023-03-13T12:21:24.216Z,99135.97
2023-03-13T12:24:04.420Z,99134.66
2023-03-13T12:26:43.761Z,99119.97
2023-03-13T12:29:24.002Z,99124.16
2023-03-13T12:32:01.051Z,99143.56
2023-03-13T12:34:40.993Z,99152.75
2023-03-13T12:37:23.437Z,99145.91
2023-03-13T12:40:01.285Z,99125.81
2023-03-13T12:42:45.873Z,99125.72
2023-03-13T12:45:35.470Z,99109.69
2023-03-13T12:48:53.933Z,99112.72
2023-03-13T12:51:42.988Z,99130.25
2023-03-13T12:54:48.322Z,99115.91
2023-03-13T12:57:50.359Z,99114.25
2023-03-13T13:00:23.509Z,99101.53
2023-03-13T13:03:11.915Z,99093.84
2023-03-13T13:05:42.550Z,99119.16
2023-03-13T13:08:30.185Z,99106.72
2023-03-13T13:11:49.762Z,99097.78
2023-03-13T13:15:00.126Z,99077.72
2023-03-13T13:18:25.429Z,99053.50
2023-03-13T13:21:28.807Z,99042.69
2023-03-13T13:24:45.215Z,99072.09
2023-03-13T13:27:32.964Z,99084.97
2023-03-13T13:30:06.815Z,99072.97
2023-03-13T13:33:02.063Z,99075.66
2023-03-13T13:35:34.827Z,99075.47
2023-03-13T13:38:40.530Z,99089.47
2023-03-13T13:41:38.276Z,99067.44
2023-03-13T13:44:31.818Z,99056.25
2023-03-13T13:47:02.148Z,99038.31
2023-03-13T13:50:09.228Z,99048.81
2023-03-13T13:52:40.774Z,99048.13
2023-03-13T13:55:35.418Z,99051.97
2023-03-13T13:58:08.584Z,99055.47
2023-03-13T14:00:45.394Z,99048.97
2023-03-13T14:03:23.877Z,99029.28
2023-03-13T14:06:02.064Z,99047.19
2023-03-13T14:08:36.846Z,99049.25
2023-03-13T14:11:29.184Z,99050.88
2023-03-13T14:14:23.409Z,99048.00
2023-03-13T14:16:57.872Z,99055.22
2023-03-13T14:19:32.551Z,99040.03
2023-03-13T14:22:11.158Z,99044.56
2023-03-13T14:24:44.694Z,99048.84
2023-03-13T14:27:18.862Z,99072.66
2023-03-13T14:30:06.317Z,99036.13
2023-03-13T14:32:37.653Z,99055.91
2023-03-13T14:35:10.886Z,99047.72
2023-03-13T14:37:51.300Z,99045.22
2023-03-13T14:40:58.503Z,99027.13
2023-03-13T14:43:38.459Z,99022.22
2023-03-13T14:46:32.985Z,99046.97
2023-03-13T14:49:11.290Z,99037.66
2023-03-13T14:51:42.166Z,99048.84
2023-03-13T14:54:31.214Z,99066.97
2023-03-13T14:57:16.331Z,99036.81
2023-03-13T14:59:48.075Z,99052.53
2023-03-13T15:02:25.418Z,99030.63
2023-03-13T15:05:01.600Z,99048.16
2023-03-13T15:07:41.319Z,99042.69
2023-03-13T15:10:28.663Z,99059.06
2023-03-13T15:13:01.827Z,99021.47
2023-03-13T15:15:32.435Z,99035.03
2023-03-13T15:18:20.805Z,99035.00
2023-03-13T15:21:21.474Z,99039.78
2023-03-13T15:24:16.842Z,99005.53
2023-03-13T15:27:24.205Z,99034.91
2023-03-13T15:29:55.842Z,99010.97
2023-03-13T15:32:32.664Z,99026.91
2023-03-13T15:35:07.532Z,99022.19
2023-03-13T15:37:37.319Z,99017.59
2023-03-13T15:40:17.894Z,99011.34
2023-03-13T15:43:07.691Z,99011.41
2023-03-13T15:45:41.151Z,99017.91
2023-03-13T15:48:19.741Z,99006.53
2023-03-13T15:50:53.546Z,99045.03
2023-03-13T15:53:26.316Z,99010.53
2023-03-13T15:56:16.029Z,99007.44
2023-03-13T15:58:46.806Z,98999.88
2023-03-13T16:01:18.276Z,99005.63
2023-03-13T16:03:48.002Z,98999.31
2023-03-13T16:06:32.117Z,98988.44
2023-03-13T16:09:05.527Z,98995.25
2023-03-13T16:11:45.536Z,98995.47
2023-03-13T16:14:14.870Z,98986.75
2023-03-13T16:16:44.207Z,98993.34
2023-03-13T16:19:14.861Z,98999.31
2023-03-13T16:21:53.290Z,98981.47
2023-03-13T16:24:36.400Z,98973.09
2023-03-13T16:27:14.944Z,98986.75
2023-03-13T16:29:44.956Z,98980.78
2023-03-13T16:32:19.311Z,98993.03
2023-03-13T16:34:49.029Z,98985.69
2023-03-13T16:37:46.152Z,98981.03
2023-03-13T16:40:29.018Z,98966.75
2023-03-13T16:43:04.975Z,98988.00
2023-03-13T16:45:34.919Z,98972.94
2023-03-13T16:48:04.991Z,98987.75
2023-03-13T16:50:36.681Z,98945.28
2023-03-13T16:53:21.445Z,98965.41
2023-03-13T16:55:52.308Z,98957.34
2023-03-13T16:58:21.551Z,98955.34
2023-03-13T17:01:04.560Z,98961.03
2023-03-13T17:03:35.607Z,98950.91
2023-03-13T17:06:06.730Z,98946.06
2023-03-13T17:08:51.067Z,98950.22
2023-03-13T17:11:48.394Z,98972.69
2023-03-13T17:14:17.544Z,98942.63
2023-03-13T17:16:48.581Z,98955.19
2023-03-13T17:19:19.149Z,98974.84
2023-03-13T17:21:49.368Z,98952.34
2023-03-13T17:24:25.547Z,98981.53
2023-03-13T17:27:03.509Z,98952.03
2023-03-13T17:29:50.968Z,98948.78
2023-03-13T17:32:21.044Z,98948.97
2023-03-13T17:34:50.541Z,98960.72
2023-03-13T17:37:24.299Z,98939.09
2023-03-13T17:39:55.589Z,98950.72
2023-03-13T17:42:34.748Z,98947.47
2023-03-13T17:45:04.944Z,98935.47
2023-03-13T17:47:40.061Z,98949.66
2023-03-13T17:50:35.215Z,98943.75
2023-03-13T17:53:05.216Z,98941.28
2023-03-13T17:55:42.287Z,98923.91
2023-03-13T17:58:34.384Z,98951.19
2023-03-13T18:01:05.535Z,98925.13
2023-03-13T18:03:36.279Z,98926.84
2023-03-13T18:06:07.749Z,98930.38
2023-03-13T18:08:37.811Z,98933.94
2023-03-13T18:11:22.558Z,98948.09
2023-03-13T18:14:07.841Z,98958.75
2023-03-13T18:16:43.300Z,98929.06
2023-03-13T18:19:19.562Z,98945.78
2023-03-13T18:21:51.455Z,98956.38
2023-03-13T18:24:21.844Z,98960.06
2023-03-13T18:26:53.559Z,98954.06
2023-03-13T18:32:34.629Z,98964.06
2023-03-13T18:35:04.592Z,98962.31
2023-03-13T18:37:40.704Z,98963.34
2023-03-13T18:40:22.040Z,98953.88
2023-03-13T18:42:53.098Z,98959.22
2023-03-13T18:48:13.591Z,98936.09
2023-03-13T18:50:43.253Z,98936.16
2023-03-13T18:53:14.260Z,98938.81
2023-03-13T18:55:44.222Z,98935.44
2023-03-13T18:58:15.682Z,98931.13
2023-03-13T19:00:45.368Z,98925.06
2023-03-13T19:03:14.977Z,98935.69
2023-03-13T19:05:44.282Z,98929.50
2023-03-13T19:08:14.011Z,98932.13
2023-03-13T19:10:47.961Z,98940.97
2023-03-13T19:13:19.306Z,98940.16
2023-03-13T19:15:48.529Z,98925.38
2023-03-13T19:18:18.048Z,98927.19
2023-03-13T19:20:47.163Z,98922.06
2023-03-13T19:23:18.129Z,98924.78
2023-03-13T19:25:47.555Z,98928.41
2023-03-13T19:28:24.317Z,98932.09
2023-03-13T19:30:54.491Z,98927.72
2023-03-13T19:33:34.778Z,98921.66
2023-03-13T19:36:06.119Z,98907.84
2023-03-13T19:38:40.048Z,98906.25
2023-03-13T19:41:10.868Z,98898.56
2023-03-13T19:43:48.293Z,98909.28
2023-03-13T19:46:28.603Z,98902.44
2023-03-13T19:49:02.398Z,98887.72
2023-03-13T19:51:36.302Z,98894.00
2023-03-13T19:54:06.318Z,98886.22
2023-03-13T19:56:37.772Z,98893.25
2023-03-13T19:59:21.080Z,98889.94
2023-03-13T20:01:50.613Z,98897.84
2023-03-13T20:04:20.303Z,98900.59
2023-03-13T20:06:49.535Z,98897.19
2023-03-13T20:09:23.565Z,98906.94
2023-03-13T20:11:53.989Z,98906.19
2023-03-13T20:14:25.856Z,98908.94
2023-03-13T20:16:56.227Z,98903.81
2023-03-13T20:19:30.950Z,98905.66
2023-03-13T20:22:05.364Z,98900.56
2023-03-13T20:24:35.371Z,98902.44
2023-03-13T20:27:06.293Z,98901.69
2023-03-13T20:29:42.587Z,98900.09
2023-03-13T20:32:13.879Z,98895.91
2023-03-13T20:34:44.061Z,98890.75
2023-03-13T20:37:13.959Z,98897.88
2023-03-13T20:39:43.706Z,98898.91
2023-03-13T20:42:12.975Z,98896.47
2023-03-13T20:44:44.601Z,98886.09
2023-03-13T20:47:13.579Z,98895.75
2023-03-13T20:49:42.444Z,98896.66
2023-03-13T20:52:31.840Z,98895.81
2023-03-13T20:55:03.127Z,98894.97
2023-03-13T20:57:34.035Z,98887.09
2023-03-13T21:00:08.187Z,98891.50
2023-03-13T21:02:37.939Z,98889.78
2023-03-13T21:05:08.808Z,98891.66
2023-03-13T21:07:37.994Z,98887.34
2023-03-13T21:10:09.948Z,98877.88
2023-03-13T21:12:39.462Z,98878.84
2023-03-13T21:15:14.149Z,98869.31
2023-03-13T21:17:43.845Z,98883.31
2023-03-13T21:20:14.478Z,98867.59
2023-03-13T21:22:44.776Z,98866.72
2023-03-13T21:25:16.298Z,98858.91
2023-03-13T21:27:45.970Z,98848.53
2023-03-13T21:30:23.728Z,98850.28
2023-03-13T21:32:57.349Z,98852.91
2023-03-13T21:35:31.830Z,98841.50
2023-03-13T21:38:04.359Z,98834.47
2023-03-13T21:40:34.167Z,98825.81
2023-03-13T21:43:05.645Z,98824.94
2023-03-13T21:45:36.816Z,98819.72
2023-03-13T21:48:07.840Z,98820.56
2023-03-13T21:50:37.117Z,98819.69
2023-03-13T21:53:06.616Z,98815.31
2023-03-13T21:55:39.974Z,98822.22
2023-03-13T21:58:10.031Z,98824.81
2023-03-13T22:00:41.051Z,98820.44
2023-03-13T22:03:11.410Z,98827.41
2023-03-13T22:05:43.828Z,98818.63
2023-03-13T22:08:14.374Z,98823.88
2023-03-13T22:10:50.889Z,98836.03
2023-03-13T22:13:20.578Z,98845.53
2023-03-13T22:15:53.433Z,98838.56
2023-03-13T22:18:23.348Z,98819.34
2023-03-13T22:20:54.239Z,98825.50
2023-03-13T22:23:23.875Z,98819.41
2023-03-13T22:25:58.892Z,98813.28
2023-03-13T22:28:32.031Z,98809.84
2023-03-13T22:31:06.741Z,98800.19
2023-03-13T22:33:37.075Z,98793.09
2023-03-13T22:36:07.759Z,98788.66
2023-03-13T22:38:42.044Z,98776.41
2023-03-13T22:41:15.788Z,98779.09
2023-03-13T22:43:45.501Z,98778.25
2023-03-13T22:46:16.994Z,98766.91
2023-03-13T22:48:49.323Z,98772.13
2023-03-13T22:51:18.882Z,98778.25
2023-03-13T22:53:50.578Z,98770.38
2023-03-13T22:56:25.863Z,98767.84
2023-03-13T22:59:00.760Z,98763.59
2023-03-13T23:01:33.327Z,98747.09
2023-03-13T23:04:05.145Z,98748.91
2023-03-13T23:06:34.725Z,98747.28
2023-03-13T23:09:13.517Z,98747.50
2023-03-13T23:11:48.401Z,98737.09
2023-03-13T23:14:36.889Z,98739.84
2023-03-13T23:17:07.777Z,98732.94
2023-03-13T23:19:37.677Z,98742.56
2023-03-13T23:22:07.111Z,98746.06
2023-03-13T23:24:36.173Z,98738.25
2023-03-13T23:27:05.469Z,98733.16
2023-03-13T23:29:34.586Z,98724.44
2023-03-13T23:32:04.878Z,98719.28
2023-03-13T23:34:38.399Z,98718.47
2023-03-13T23:37:07.642Z,98722.06
2023-03-13T23:39:39.659Z,98723.03
2023-03-13T23:42:10.174Z,98725.66
2023-03-13T23:44:40.313Z,98712.59
2023-03-13T23:47:15.423Z,98703.06
2023-03-13T23:49:55.602Z,98693.53
2023-03-13T23:52:26.448Z,98692.56
2023-03-13T23:54:57.334Z,98701.22
2023-03-13T23:57:28.899Z,98708.25
2023-03-13T23:59:58.551Z,98720.41
